Accueil
METAR-TAF:

METAR-TAF

Aéroports :

Aéroport de Milan-Linate

Milan, Italie

latitude: 45-26N, longitude: 009-17E, altitude: 107 m

Observation

Le bulletin a été fait il y a 4 heures et 55 minutes, à 00:20 UTC
Vent 2 kt de nord/nord-est
Température 0°C
Humidité 100%
Pression 1021 hPa
Visibilité: 0050 m
brouillard

METAR: LIML 300020Z AUTO 03002KT 0050 R36/0375U FG VV010 00/00 Q1021

Heure: 06:15 (05:15 UTC)

Prévision

Le bulletin a été fait il y a 6 heures et 15 minutes, à 23:00 UTC
Prévision valable du 30 à 00 UTC au 30 à 24 UTC
Vent 3 kt de direction variable
Visibilité: 0300 m
Nuages fragmentés à une hauteur de 300 ft
brouillard
Evoluant progressivement
du 30 à 07 UTC au 30 à 10 UTC
Visibilité: 6000 m
Nuages épars à une hauteur de 2000 ft
Evoluant progressivement
du 30 à 15 UTC au 30 à 18 UTC
Visibilité: 2000 m

TAF: LIML 292300Z 3000/3024 VRB03KT 0300 FG BKN003 BECMG 3007/3010 6000 SCT020 BECMG 3015/3018 2000

Observations et prévisions météorologiques de plus de 4000 aéroports (messages METAR et TAF).

Les stations disponibles sont représentées par des disques jaunes et rouges sur la carte.

Passer la souris dessus pour voir le nom de la station.

Cliquer dessus pour voir les observations et prévisions météorologiques.

Pour changer de carte: cliquez sur les boutons verts avec une croix noire pour zoomer, sur le bouton vert avec un tiret pour effectuer un zoom arrière, ou sur les flèches vertes pour les cartes adjacentes.


METAR-TAF: